createdAt,value
2018-04-13T00:00:03.175Z,8.01
2018-04-13T00:01:03.109Z,8.07
2018-04-13T00:02:03.230Z,8.06
2018-04-13T00:03:03.100Z,8.07
2018-04-13T00:04:03.112Z,8.02
2018-04-13T00:05:03.167Z,7.95
2018-04-13T00:06:03.167Z,7.93
2018-04-13T00:07:03.135Z,7.92
2018-04-13T00:08:03.224Z,7.98
2018-04-13T00:09:03.124Z,7.97
2018-04-13T00:10:03.108Z,8.01
2018-04-13T00:11:03.088Z,7.96
2018-04-13T00:12:03.286Z,7.98
2018-04-13T00:13:03.109Z,7.96
2018-04-13T00:14:03.098Z,7.96
2018-04-13T00:15:03.104Z,7.98
2018-04-13T00:16:03.096Z,7.97
2018-04-13T00:17:03.119Z,7.95
2018-04-13T00:18:03.163Z,7.94
2018-04-13T00:19:03.088Z,7.88
2018-04-13T00:20:03.091Z,7.89
2018-04-13T00:21:03.074Z,7.89
2018-04-13T00:22:03.128Z,7.9
2018-04-13T00:23:03.096Z,7.87
2018-04-13T00:24:03.108Z,7.89
2018-04-13T00:25:03.111Z,8.04
2018-04-13T00:26:03.073Z,8.02
2018-04-13T00:27:03.125Z,7.95
2018-04-13T00:28:03.085Z,7.98
2018-04-13T00:29:03.070Z,7.95
2018-04-13T00:30:03.057Z,7.93
2018-04-13T00:31:03.091Z,8
2018-04-13T00:32:03.098Z,7.96
2018-04-13T00:33:03.056Z,7.89
2018-04-13T00:34:03.056Z,8
2018-04-13T00:35:03.064Z,7.98
2018-04-13T00:36:03.075Z,7.99
2018-04-13T00:37:03.087Z,7.98
2018-04-13T00:38:03.074Z,7.97
2018-04-13T00:39:03.048Z,7.9
2018-04-13T00:40:03.049Z,7.94
2018-04-13T00:41:03.104Z,7.97
2018-04-13T00:42:03.228Z,7.89
2018-04-13T00:43:03.057Z,7.98
2018-04-13T00:44:03.092Z,7.97
2018-04-13T00:45:03.064Z,7.85
2018-04-13T00:46:03.047Z,7.9
2018-04-13T00:47:03.176Z,7.87
2018-04-13T00:48:03.057Z,7.93
2018-04-13T00:49:03.080Z,7.87
2018-04-13T00:50:03.078Z,7.95
2018-04-13T00:51:03.041Z,7.85
2018-04-13T00:52:03.074Z,7.85
2018-04-13T00:53:03.037Z,7.92
2018-04-13T00:54:03.045Z,7.8
2018-04-13T00:55:03.066Z,7.76
2018-04-13T00:56:03.069Z,7.79
2018-04-13T00:57:03.141Z,7.89
2018-04-13T00:58:03.046Z,7.81
2018-04-13T00:59:03.086Z,7.78
2018-04-13T01:00:03.037Z,7.84
2018-04-13T01:01:03.036Z,7.77
2018-04-13T01:02:03.110Z,7.8
2018-04-13T01:03:03.018Z,7.86
2018-04-13T01:04:03.298Z,7.85
2018-04-13T01:05:03.012Z,7.86
2018-04-13T01:06:03.010Z,7.83
2018-04-13T01:07:03.022Z,7.8
2018-04-13T01:08:03.053Z,7.88
2018-04-13T01:09:03.031Z,7.87
2018-04-13T01:10:03.005Z,7.89
2018-04-13T01:11:03.006Z,7.82
2018-04-13T01:12:03.016Z,7.81
2018-04-13T01:13:03.022Z,7.91
2018-04-13T01:14:03.084Z,7.95
2018-04-13T01:15:03.109Z,7.93
2018-04-13T01:16:03.003Z,7.91
2018-04-13T01:17:03.036Z,7.88
2018-04-13T01:18:02.988Z,7.85
2018-04-13T01:19:03.260Z,7.87
2018-04-13T01:20:03.003Z,7.83
2018-04-13T01:21:03.052Z,7.8
2018-04-13T01:22:03.044Z,7.81
2018-04-13T01:23:03.011Z,7.79
2018-04-13T01:24:03.069Z,7.87
2018-04-13T01:25:03.007Z,7.81
2018-04-13T01:26:03.015Z,7.87
2018-04-13T01:27:03.017Z,7.77
2018-04-13T01:28:03.037Z,7.81
2018-04-13T01:29:02.960Z,7.72
2018-04-13T01:30:03.013Z,7.74
2018-04-13T01:31:02.984Z,7.77
2018-04-13T01:32:02.975Z,7.73
2018-04-13T01:33:02.995Z,7.78
2018-04-13T01:34:02.995Z,7.77
2018-04-13T01:35:03.004Z,7.82
2018-04-13T01:36:02.964Z,7.82
2018-04-13T01:37:03.104Z,7.86
2018-04-13T01:38:02.977Z,7.78
2018-04-13T01:39:03.019Z,7.82
2018-04-13T01:40:03.013Z,7.77
2018-04-13T01:41:02.963Z,7.84
2018-04-13T01:42:02.987Z,7.77
2018-04-13T01:43:02.961Z,7.71
2018-04-13T01:44:02.969Z,7.74
2018-04-13T01:45:03.007Z,7.74
2018-04-13T01:46:02.974Z,7.89
2018-04-13T01:47:03.009Z,7.86
2018-04-13T01:48:02.960Z,7.86
2018-04-13T01:49:02.969Z,7.86
2018-04-13T01:50:03.020Z,7.84
2018-04-13T01:51:02.989Z,7.84
2018-04-13T01:52:02.965Z,7.8
2018-04-13T01:53:02.959Z,7.8
2018-04-13T01:54:02.943Z,7.75
2018-04-13T01:55:03.021Z,7.77
2018-04-13T01:56:02.949Z,7.72
2018-04-13T01:57:02.933Z,7.73
2018-04-13T01:58:02.994Z,7.65
2018-04-13T01:59:02.998Z,7.8
2018-04-13T02:00:03.040Z,7.7
2018-04-13T02:01:02.943Z,7.68
2018-04-13T02:02:02.952Z,7.8
2018-04-13T02:03:03.022Z,7.73
2018-04-13T02:04:02.922Z,7.74
2018-04-13T02:05:03.045Z,7.73
2018-04-13T02:06:02.918Z,7.71
2018-04-13T02:07:02.931Z,7.77
2018-04-13T02:08:03.001Z,7.78
2018-04-13T02:09:02.938Z,7.72
2018-04-13T02:10:02.950Z,7.71
2018-04-13T02:11:02.963Z,7.71
2018-04-13T02:12:02.943Z,7.73
2018-04-13T02:13:02.911Z,7.74
2018-04-13T02:14:03.058Z,7.63
2018-04-13T02:15:02.926Z,7.66
2018-04-13T02:16:02.916Z,7.63
2018-04-13T02:17:02.929Z,7.64
2018-04-13T02:18:02.899Z,7.64
2018-04-13T02:19:02.904Z,7.78
2018-04-13T02:20:02.926Z,7.76
2018-04-13T02:21:02.908Z,7.75
2018-04-13T02:22:02.915Z,7.72
2018-04-13T02:23:02.906Z,7.72
2018-04-13T02:24:03.012Z,7.74
2018-04-13T02:25:03.047Z,7.76
2018-04-13T02:26:03.251Z,7.75
2018-04-13T02:27:02.905Z,7.7
2018-04-13T02:28:02.893Z,7.59
2018-04-13T02:29:02.937Z,7.62
2018-04-13T02:30:02.907Z,7.75
2018-04-13T02:31:02.910Z,7.76
2018-04-13T02:32:02.891Z,7.7
2018-04-13T02:33:02.925Z,7.68
2018-04-13T02:34:03.072Z,7.68
2018-04-13T02:35:02.914Z,7.74
2018-04-13T02:36:02.915Z,7.76
2018-04-13T02:37:02.919Z,7.74
2018-04-13T02:38:02.920Z,7.73
2018-04-13T02:39:02.914Z,7.76
2018-04-13T02:40:02.901Z,7.76
2018-04-13T02:41:02.912Z,7.72
2018-04-13T02:42:02.899Z,7.7
2018-04-13T02:43:02.877Z,7.63
2018-04-13T02:44:02.949Z,7.64
2018-04-13T02:45:02.886Z,7.59
2018-04-13T02:46:02.884Z,7.6
2018-04-13T02:47:02.853Z,7.62
2018-04-13T02:48:02.880Z,7.59
2018-04-13T02:49:02.892Z,7.64
2018-04-13T02:50:02.903Z,7.69
2018-04-13T02:51:02.850Z,7.66
2018-04-13T02:52:02.865Z,7.63
2018-04-13T02:53:02.861Z,7.62
2018-04-13T02:54:02.894Z,7.59
2018-04-13T02:55:02.867Z,7.62
2018-04-13T02:56:02.839Z,7.58
2018-04-13T02:57:02.880Z,7.62
2018-04-13T02:58:02.845Z,7.65
2018-04-13T02:59:03.095Z,7.65
2018-04-13T03:00:02.858Z,7.62
2018-04-13T03:01:02.855Z,7.58
2018-04-13T03:02:02.840Z,7.65
2018-04-13T03:03:02.851Z,7.61
2018-04-13T03:04:02.859Z,7.62
2018-04-13T03:05:02.861Z,7.56
2018-04-13T03:06:02.839Z,7.59
2018-04-13T03:07:02.815Z,7.53
2018-04-13T03:08:02.837Z,7.56
2018-04-13T03:09:02.874Z,7.54
2018-04-13T03:10:02.834Z,7.53
2018-04-13T03:11:02.832Z,7.5
2018-04-13T03:12:02.847Z,7.54
2018-04-13T03:13:02.854Z,7.53
2018-04-13T03:14:02.871Z,7.49
2018-04-13T03:15:02.816Z,7.45
2018-04-13T03:16:02.809Z,7.47
2018-04-13T03:17:02.828Z,7.48
2018-04-13T03:18:02.822Z,7.42
2018-04-13T03:19:02.853Z,7.47
2018-04-13T03:20:02.819Z,7.4
2018-04-13T03:21:02.805Z,7.37
2018-04-13T03:22:02.803Z,7.51
2018-04-13T03:23:02.800Z,7.52
2018-04-13T03:24:02.827Z,7.51
2018-04-13T03:25:02.835Z,7.46
2018-04-13T03:26:02.891Z,7.47
2018-04-13T03:27:02.830Z,7.44
2018-04-13T03:28:02.808Z,7.48
2018-04-13T03:29:02.829Z,7.45
2018-04-13T03:30:02.846Z,7.53
2018-04-13T03:31:02.833Z,7.48
2018-04-13T03:32:02.902Z,7.49
2018-04-13T03:33:02.819Z,7.49
2018-04-13T03:34:02.972Z,7.42
2018-04-13T03:35:02.824Z,7.5
2018-04-13T03:36:02.833Z,7.4
2018-04-13T03:37:02.800Z,7.57
2018-04-13T03:38:02.818Z,7.49
2018-04-13T03:39:02.921Z,7.54
2018-04-13T03:40:02.789Z,7.48
2018-04-13T03:41:02.786Z,7.5
2018-04-13T03:42:02.796Z,7.55
2018-04-13T03:43:02.844Z,7.56
2018-04-13T03:44:02.787Z,7.59
2018-04-13T03:45:02.785Z,7.54
2018-04-13T03:46:02.774Z,7.51
2018-04-13T03:47:02.815Z,7.44
2018-04-13T03:48:02.764Z,7.43
2018-04-13T03:49:02.773Z,7.39
2018-04-13T03:50:02.834Z,7.53
2018-04-13T03:51:02.775Z,7.48
2018-04-13T03:52:02.764Z,7.45
2018-04-13T03:53:02.818Z,7.53
2018-04-13T03:54:02.803Z,7.51
2018-04-13T03:55:02.777Z,7.51
2018-04-13T03:56:02.758Z,7.53
2018-04-13T03:57:02.820Z,7.53
2018-04-13T03:58:02.763Z,7.53
2018-04-13T03:59:02.863Z,7.52
2018-04-13T04:00:02.792Z,7.56
2018-04-13T04:01:02.742Z,7.56
2018-04-13T04:02:02.927Z,7.57
2018-04-13T04:03:02.744Z,7.53
2018-04-13T04:04:02.867Z,7.46
2018-04-13T04:05:02.763Z,7.42
2018-04-13T04:06:02.762Z,7.45
2018-04-13T04:07:02.718Z,7.47
2018-04-13T04:08:02.747Z,7.48
2018-04-13T04:09:02.783Z,7.45
2018-04-13T04:10:02.778Z,7.53
2018-04-13T04:11:03.131Z,7.43
2018-04-13T04:12:02.742Z,7.45
2018-04-13T04:13:02.747Z,7.49
2018-04-13T04:14:02.708Z,7.4
2018-04-13T04:15:02.750Z,7.4
2018-04-13T04:16:02.793Z,7.48
2018-04-13T04:17:02.778Z,7.49
2018-04-13T04:18:02.842Z,7.45
2018-04-13T04:19:02.721Z,7.4
2018-04-13T04:20:02.728Z,7.4
2018-04-13T04:21:02.860Z,7.51
2018-04-13T04:22:02.855Z,7.48
2018-04-13T04:23:02.723Z,7.51
2018-04-13T04:24:02.746Z,7.45
2018-04-13T04:25:02.783Z,7.46
2018-04-13T04:26:02.757Z,7.51
2018-04-13T04:27:02.739Z,7.47
2018-04-13T04:28:03.057Z,7.41
2018-04-13T04:29:02.709Z,7.4
2018-04-13T04:30:02.766Z,7.47
2018-04-13T04:31:02.700Z,7.53
2018-04-13T04:32:02.722Z,7.52
2018-04-13T04:33:02.721Z,7.49
2018-04-13T04:34:02.731Z,7.45
2018-04-13T04:35:02.731Z,7.53
2018-04-13T04:36:02.698Z,7.54
2018-04-13T04:37:02.709Z,7.49
2018-04-13T04:38:02.735Z,7.45
2018-04-13T04:39:02.675Z,7.53
2018-04-13T04:40:02.715Z,7.48
2018-04-13T04:41:02.696Z,7.44
2018-04-13T04:42:02.683Z,7.43
2018-04-13T04:43:02.712Z,7.46
2018-04-13T04:44:02.727Z,7.58
2018-04-13T04:45:02.799Z,7.52
2018-04-13T04:46:02.673Z,7.47
2018-04-13T04:47:02.676Z,7.55
2018-04-13T04:48:02.723Z,7.52
2018-04-13T04:49:02.661Z,7.49
2018-04-13T04:50:02.769Z,7.57
2018-04-13T04:51:02.658Z,7.5
2018-04-13T04:52:02.656Z,7.49
2018-04-13T04:53:02.710Z,7.46
2018-04-13T04:54:02.664Z,7.5
2018-04-13T04:55:02.674Z,7.53
2018-04-13T04:56:02.688Z,7.56
2018-04-13T04:57:02.662Z,7.47
2018-04-13T04:58:02.752Z,7.46
2018-04-13T04:59:02.652Z,7.45
2018-04-13T05:00:02.791Z,7.49
2018-04-13T05:01:02.655Z,7.46
2018-04-13T05:02:02.664Z,7.49
2018-04-13T05:03:02.694Z,7.5
2018-04-13T05:04:02.661Z,7.43
2018-04-13T05:05:02.685Z,7.48
2018-04-13T05:06:02.658Z,7.45
2018-04-13T05:07:02.683Z,7.5
2018-04-13T05:08:02.818Z,7.44
2018-04-13T05:09:02.663Z,7.5
2018-04-13T05:10:02.760Z,7.48
2018-04-13T05:11:02.640Z,7.54
2018-04-13T05:12:02.974Z,7.59
2018-04-13T05:13:02.660Z,7.48
2018-04-13T05:14:02.642Z,7.5
2018-04-13T05:15:02.659Z,7.46
2018-04-13T05:16:02.747Z,7.49
2018-04-13T05:17:02.649Z,7.53
2018-04-13T05:18:02.634Z,7.45
2018-04-13T05:19:02.637Z,7.44
2018-04-13T05:20:02.662Z,7.64
2018-04-13T05:21:02.720Z,7.53
2018-04-13T05:22:02.662Z,7.65
2018-04-13T05:23:02.631Z,7.59
2018-04-13T05:24:02.774Z,7.6
2018-04-13T05:25:02.725Z,7.59
2018-04-13T05:26:02.629Z,7.59
2018-04-13T05:27:02.624Z,7.58
2018-04-13T05:28:02.633Z,7.65
2018-04-13T05:29:02.649Z,7.58
2018-04-13T05:30:02.634Z,7.62
2018-04-13T05:31:02.721Z,7.61
2018-04-13T05:32:02.681Z,7.6
2018-04-13T05:33:02.609Z,7.67
2018-04-13T05:34:02.622Z,7.6
2018-04-13T05:35:02.628Z,7.55
2018-04-13T05:36:02.603Z,7.67
2018-04-13T05:37:02.659Z,7.59
2018-04-13T05:38:02.593Z,7.6
2018-04-13T05:39:02.597Z,7.57
2018-04-13T05:40:02.687Z,7.58
2018-04-13T05:41:02.724Z,7.61
2018-04-13T05:42:02.671Z,7.64
2018-04-13T05:43:02.621Z,7.58
2018-04-13T05:44:02.588Z,7.59
2018-04-13T05:45:02.584Z,7.68
2018-04-13T05:46:02.876Z,7.59
2018-04-13T05:47:02.589Z,7.65
2018-04-13T05:48:02.625Z,7.58
2018-04-13T05:49:02.583Z,7.56
2018-04-13T05:50:02.577Z,7.64
2018-04-13T05:51:02.597Z,7.65
2018-04-13T05:52:02.586Z,7.6
2018-04-13T05:53:02.609Z,7.56
2018-04-13T05:54:02.575Z,7.6
2018-04-13T05:55:02.573Z,7.61
2018-04-13T05:56:02.563Z,7.61
2018-04-13T05:57:02.599Z,7.63
2018-04-13T05:58:02.782Z,7.71
2018-04-13T05:59:02.567Z,7.72
2018-04-13T06:00:02.585Z,7.67
2018-04-13T06:01:02.569Z,7.7
2018-04-13T06:02:02.573Z,7.66
2018-04-13T06:03:02.575Z,7.62
2018-04-13T06:04:02.605Z,7.63
2018-04-13T06:05:02.690Z,7.56
2018-04-13T06:06:02.888Z,7.62
2018-04-13T06:07:02.549Z,7.75
2018-04-13T06:08:02.563Z,7.75
2018-04-13T06:09:02.564Z,7.77
2018-04-13T06:10:02.679Z,7.73
2018-04-13T06:11:02.551Z,7.76
2018-04-13T06:12:02.548Z,7.73
2018-04-13T06:13:02.582Z,7.83
2018-04-13T06:14:02.545Z,7.74
2018-04-13T06:15:02.541Z,7.74
2018-04-13T06:16:02.540Z,7.73
2018-04-13T06:17:02.535Z,7.73
2018-04-13T06:18:02.578Z,7.72
2018-04-13T06:19:02.672Z,7.71
2018-04-13T06:20:02.550Z,7.78
2018-04-13T06:21:02.548Z,7.81
2018-04-13T06:22:02.537Z,7.74
2018-04-13T06:23:02.523Z,7.75
2018-04-13T06:24:02.521Z,7.8
2018-04-13T06:25:02.606Z,7.79
2018-04-13T06:26:02.551Z,7.81
2018-04-13T06:27:02.534Z,7.74
2018-04-13T06:28:02.845Z,7.86
2018-04-13T06:29:02.565Z,7.78
2018-04-13T06:30:02.531Z,7.83
2018-04-13T06:31:02.510Z,7.84
2018-04-13T06:32:02.528Z,7.85
2018-04-13T06:33:02.553Z,7.82
2018-04-13T06:34:02.535Z,7.84
2018-04-13T06:35:02.584Z,7.79
2018-04-13T06:36:02.524Z,7.8
2018-04-13T06:37:02.537Z,7.77
2018-04-13T06:38:02.537Z,7.92
2018-04-13T06:39:02.529Z,7.81
2018-04-13T06:40:02.537Z,7.8
2018-04-13T06:41:02.506Z,7.84
2018-04-13T06:42:02.624Z,7.86
2018-04-13T06:43:02.591Z,7.78
2018-04-13T06:44:02.572Z,7.78
2018-04-13T06:45:02.524Z,7.79
2018-04-13T06:46:02.557Z,7.85
2018-04-13T06:47:02.528Z,7.93
2018-04-13T06:48:02.517Z,7.86
2018-04-13T06:49:02.507Z,7.96
2018-04-13T06:50:02.500Z,7.95
2018-04-13T06:51:02.516Z,7.97
2018-04-13T06:52:02.497Z,7.89
2018-04-13T06:53:02.504Z,7.93
2018-04-13T06:54:02.473Z,7.95
2018-04-13T06:55:02.484Z,7.98
2018-04-13T06:56:02.486Z,7.91
2018-04-13T06:57:02.502Z,7.89
2018-04-13T06:58:02.539Z,7.96
2018-04-13T06:59:02.494Z,7.91
2018-04-13T07:00:02.519Z,7.86
2018-04-13T07:01:02.583Z,7.95
2018-04-13T07:02:02.482Z,7.98
2018-04-13T07:03:02.526Z,8
2018-04-13T07:04:02.522Z,8
2018-04-13T07:05:02.516Z,7.98
2018-04-13T07:06:02.537Z,8.05
2018-04-13T07:07:02.509Z,8.04
2018-04-13T07:08:02.567Z,8.06
2018-04-13T07:09:02.481Z,8.02
2018-04-13T07:10:02.479Z,8.04
2018-04-13T07:11:02.497Z,8.03
2018-04-13T07:12:02.520Z,8.12
2018-04-13T07:13:02.479Z,7.98
2018-04-13T07:14:02.481Z,8.07
2018-04-13T07:15:02.483Z,8.07
2018-04-13T07:16:02.482Z,8.14
2018-04-13T07:17:02.501Z,8.16
2018-04-13T07:18:02.510Z,8.17
2018-04-13T07:19:02.546Z,8.14
2018-04-13T07:20:02.466Z,8.27
2018-04-13T07:21:02.493Z,8.23
2018-04-13T07:22:02.584Z,8.31
2018-04-13T07:23:02.511Z,8.31
2018-04-13T07:24:02.462Z,8.26
2018-04-13T07:25:02.896Z,8.24
2018-04-13T07:26:02.430Z,8.31
2018-04-13T07:27:02.480Z,8.28
2018-04-13T07:28:02.486Z,8.26
2018-04-13T07:29:02.450Z,8.31
2018-04-13T07:30:02.512Z,8.27
2018-04-13T07:31:02.463Z,8.41
2018-04-13T07:32:02.453Z,8.38
2018-04-13T07:33:02.480Z,8.41
2018-04-13T07:34:02.451Z,8.42
2018-04-13T07:35:02.453Z,8.46
2018-04-13T07:36:02.469Z,8.42
2018-04-13T07:37:02.451Z,8.51
2018-04-13T07:38:02.552Z,8.56
2018-04-13T07:39:02.558Z,8.5
2018-04-13T07:40:02.575Z,8.5
2018-04-13T07:41:02.444Z,8.54
2018-04-13T07:42:02.455Z,8.58
2018-04-13T07:43:02.437Z,8.57
2018-04-13T07:44:02.485Z,8.62
2018-04-13T07:45:03.238Z,8.55
2018-04-13T07:46:02.925Z,8.55
2018-04-13T07:47:02.568Z,8.56
2018-04-13T07:48:02.510Z,8.56
2018-04-13T07:49:02.421Z,8.61
2018-04-13T07:50:02.468Z,8.71
2018-04-13T07:51:02.455Z,8.54
2018-04-13T07:52:02.462Z,8.61
2018-04-13T07:53:02.409Z,8.8
2018-04-13T07:54:02.424Z,8.83
2018-04-13T07:55:02.412Z,8.83
2018-04-13T07:56:02.418Z,8.87
2018-04-13T07:57:02.432Z,8.92
2018-04-13T07:58:03.912Z,9.15
2018-04-13T07:59:02.520Z,9.09
2018-04-13T08:00:02.415Z,8.95
2018-04-13T08:01:02.850Z,8.9
2018-04-13T08:02:02.422Z,8.88
2018-04-13T08:03:02.398Z,8.9
2018-04-13T08:04:02.380Z,8.83
2018-04-13T08:05:03.503Z,8.9
2018-04-13T08:06:02.426Z,8.91
2018-04-13T08:07:02.401Z,8.97
2018-04-13T08:08:02.392Z,8.86
2018-04-13T08:09:02.649Z,8.91
2018-04-13T08:10:02.388Z,8.91
2018-04-13T08:11:02.385Z,8.93
2018-04-13T08:12:02.420Z,8.91
2018-04-13T08:13:04.110Z,8.86
2018-04-13T08:14:02.829Z,8.85
2018-04-13T08:15:02.520Z,9.01
2018-04-13T08:16:02.491Z,8.98
2018-04-13T08:17:02.402Z,8.99
2018-04-13T08:18:02.621Z,8.96
2018-04-13T08:19:02.363Z,8.92
2018-04-13T08:20:02.381Z,8.94
2018-04-13T08:21:02.361Z,8.99
2018-04-13T08:22:02.631Z,8.97
2018-04-13T08:23:02.365Z,8.96
2018-04-13T08:24:02.443Z,9
2018-04-13T08:25:02.447Z,9.07
2018-04-13T08:26:02.354Z,9.03
2018-04-13T08:27:02.407Z,9.08
2018-04-13T08:28:02.473Z,9.06
2018-04-13T08:29:02.350Z,8.98
2018-04-13T08:30:02.509Z,8.97
2018-04-13T08:31:02.348Z,9.03
2018-04-13T08:32:02.562Z,8.97
2018-04-13T08:33:02.355Z,9.06
2018-04-13T08:34:02.425Z,8.91
2018-04-13T08:35:02.472Z,8.88
2018-04-13T08:36:02.428Z,8.86
2018-04-13T08:37:03.960Z,8.94
2018-04-13T08:38:02.493Z,8.93
2018-04-13T08:39:02.373Z,8.91
2018-04-13T08:40:02.384Z,8.86
2018-04-13T08:41:02.440Z,8.85
2018-04-13T08:42:02.331Z,8.8
2018-04-13T08:43:02.435Z,8.83
2018-04-13T08:44:02.339Z,8.79
2018-04-13T08:45:02.341Z,8.81
2018-04-13T08:46:02.371Z,8.85
2018-04-13T08:47:02.356Z,8.84
2018-04-13T08:48:02.374Z,8.82
2018-04-13T08:49:04.005Z,8.81
2018-04-13T08:50:02.521Z,8.79
2018-04-13T08:51:02.398Z,8.79
2018-04-13T08:52:02.329Z,8.78
2018-04-13T08:53:02.360Z,8.74
2018-04-13T08:54:02.604Z,8.64
2018-04-13T08:55:02.323Z,8.79
2018-04-13T08:56:02.327Z,8.74
2018-04-13T08:57:02.314Z,8.77
2018-04-13T08:58:02.401Z,8.81
2018-04-13T08:59:02.321Z,8.76
2018-04-13T09:00:02.339Z,8.78
2018-04-13T09:01:02.713Z,8.68
2018-04-13T09:02:02.687Z,8.7
2018-04-13T09:03:02.325Z,8.75
2018-04-13T09:04:02.315Z,8.79
2018-04-13T09:05:02.309Z,8.77
2018-04-13T09:06:02.294Z,8.78
2018-04-13T09:07:02.339Z,8.8
2018-04-13T09:08:02.332Z,8.8
2018-04-13T09:09:02.274Z,8.71
2018-04-13T09:10:02.297Z,8.72
2018-04-13T09:11:02.329Z,8.78
2018-04-13T09:12:02.316Z,8.8
2018-04-13T09:13:02.615Z,8.77
2018-04-13T09:14:02.368Z,8.71
2018-04-13T09:15:02.288Z,8.8
2018-04-13T09:16:02.278Z,8.87
2018-04-13T09:17:02.330Z,8.84
2018-04-13T09:18:02.605Z,8.81
2018-04-13T09:19:02.283Z,8.83
2018-04-13T09:20:02.441Z,8.86
2018-04-13T09:21:02.284Z,8.81
2018-04-13T09:22:02.296Z,8.85
2018-04-13T09:23:02.288Z,8.86
2018-04-13T09:24:02.312Z,8.84
2018-04-13T09:25:02.322Z,8.81
2018-04-13T09:26:02.327Z,8.77
2018-04-13T09:27:02.322Z,8.76
2018-04-13T09:28:02.488Z,8.8
2018-04-13T09:29:02.253Z,8.78
2018-04-13T09:30:02.307Z,8.76
2018-04-13T09:31:02.250Z,8.79
2018-04-13T09:32:02.298Z,8.77
2018-04-13T09:33:02.293Z,8.82
2018-04-13T09:34:02.241Z,8.83
2018-04-13T09:35:02.252Z,8.71
2018-04-13T09:36:02.398Z,8.8
2018-04-13T09:37:02.285Z,8.75
2018-04-13T09:38:02.343Z,8.73
2018-04-13T09:39:02.241Z,8.72
2018-04-13T09:40:02.255Z,8.71
2018-04-13T09:41:02.274Z,8.64
2018-04-13T09:42:02.249Z,8.71
2018-04-13T09:43:02.295Z,8.69
2018-04-13T09:44:02.216Z,8.71
2018-04-13T09:45:02.226Z,8.68
2018-04-13T09:46:02.273Z,8.73
2018-04-13T09:47:02.431Z,8.8
2018-04-13T09:48:02.257Z,8.76
2018-04-13T09:49:02.244Z,8.76
2018-04-13T09:50:03.235Z,8.73
2018-04-13T09:51:02.375Z,8.75
2018-04-13T09:52:02.219Z,8.7
2018-04-13T09:53:02.241Z,8.63
2018-04-13T09:54:02.207Z,8.65
2018-04-13T09:55:02.213Z,8.55
2018-04-13T09:56:02.409Z,8.61
2018-04-13T09:57:02.222Z,8.53
2018-04-13T09:58:02.236Z,8.54
2018-04-13T09:59:02.240Z,8.54
2018-04-13T10:00:02.198Z,8.54
2018-04-13T10:01:02.224Z,8.56
2018-04-13T10:02:02.192Z,8.52
2018-04-13T10:03:02.193Z,8.49
2018-04-13T10:04:02.230Z,8.53
2018-04-13T10:05:02.184Z,8.57
2018-04-13T10:06:02.194Z,8.59
2018-04-13T10:07:02.186Z,8.51
2018-04-13T10:08:02.493Z,8.56
2018-04-13T10:09:02.193Z,8.49
2018-04-13T10:10:02.197Z,8.53
2018-04-13T10:11:02.194Z,8.54
2018-04-13T10:12:02.226Z,8.46
2018-04-13T10:13:02.197Z,8.47
2018-04-13T10:14:02.174Z,8.55
2018-04-13T10:15:02.182Z,8.53
2018-04-13T10:16:02.177Z,8.54
2018-04-13T10:17:02.190Z,8.51
2018-04-13T10:18:02.174Z,8.52
2018-04-13T10:19:02.169Z,8.51
2018-04-13T10:20:02.183Z,8.48
2018-04-13T10:21:02.171Z,8.55
2018-04-13T10:22:02.189Z,8.51
2018-04-13T10:23:02.185Z,8.5
2018-04-13T10:24:02.196Z,8.52
2018-04-13T10:25:02.268Z,8.53
2018-04-13T10:26:02.289Z,8.56
2018-04-13T10:27:02.218Z,8.61
2018-04-13T10:28:02.208Z,8.56
2018-04-13T10:29:02.269Z,8.6
2018-04-13T10:30:02.191Z,8.5
2018-04-13T10:31:02.153Z,8.6
2018-04-13T10:32:02.180Z,8.7
2018-04-13T10:33:02.161Z,8.63
2018-04-13T10:34:02.251Z,8.68
2018-04-13T10:35:02.175Z,8.68
2018-04-13T10:36:02.165Z,8.75
2018-04-13T10:37:02.188Z,8.61
2018-04-13T10:38:02.191Z,8.65
2018-04-13T10:39:02.173Z,8.65
2018-04-13T10:40:02.183Z,8.64
2018-04-13T10:41:02.147Z,8.62
2018-04-13T10:42:02.171Z,8.63
2018-04-13T10:43:02.146Z,8.6
2018-04-13T10:44:02.231Z,8.7
2018-04-13T10:45:02.207Z,8.73
2018-04-13T10:46:02.170Z,8.67
2018-04-13T10:47:02.149Z,8.69
2018-04-13T10:48:02.165Z,8.69
2018-04-13T10:49:02.214Z,8.68
2018-04-13T10:50:02.162Z,8.77
2018-04-13T10:51:02.180Z,8.9
2018-04-13T10:52:02.166Z,8.73
2018-04-13T10:53:02.152Z,8.83
2018-04-13T10:54:02.150Z,8.84
2018-04-13T10:55:02.223Z,8.78
2018-04-13T10:56:02.131Z,8.88
2018-04-13T10:57:02.413Z,8.83
2018-04-13T10:58:02.239Z,8.94
2018-04-13T10:59:02.198Z,8.78
2018-04-13T11:00:02.140Z,8.83
2018-04-13T11:01:02.148Z,8.79
2018-04-13T11:02:02.114Z,8.86
2018-04-13T11:03:02.153Z,8.74
2018-04-13T11:04:02.113Z,8.75
2018-04-13T11:05:02.134Z,8.77
2018-04-13T11:06:02.169Z,8.76
2018-04-13T11:07:02.120Z,8.71
2018-04-13T11:08:02.110Z,8.78
2018-04-13T11:09:02.121Z,8.77
2018-04-13T11:10:02.129Z,8.88
2018-04-13T11:11:02.153Z,8.83
2018-04-13T11:12:02.144Z,8.87
2018-04-13T11:13:02.126Z,8.78
2018-04-13T11:14:02.459Z,8.77
2018-04-13T11:15:02.113Z,8.8
2018-04-13T11:16:02.101Z,8.81
2018-04-13T11:17:02.084Z,8.78
2018-04-13T11:18:02.125Z,8.74
2018-04-13T11:19:02.126Z,8.72
2018-04-13T11:20:02.118Z,8.78
2018-04-13T11:21:02.084Z,8.83
2018-04-13T11:22:02.084Z,8.75
2018-04-13T11:23:02.079Z,8.8
2018-04-13T11:24:02.060Z,8.77
2018-04-13T11:25:02.108Z,8.73
2018-04-13T11:26:02.123Z,8.77
2018-04-13T11:27:02.354Z,8.78
2018-04-13T11:28:02.116Z,8.86
2018-04-13T11:29:02.205Z,8.85
2018-04-13T11:30:02.275Z,8.75
2018-04-13T11:31:02.115Z,8.68
2018-04-13T11:32:02.181Z,8.72
2018-04-13T11:33:02.071Z,8.68
2018-04-13T11:34:02.054Z,8.73
2018-04-13T11:35:02.070Z,8.73
2018-04-13T11:36:02.079Z,8.68
2018-04-13T11:37:02.174Z,8.71
2018-04-13T11:38:02.089Z,8.75
2018-04-13T11:39:02.086Z,8.73
2018-04-13T11:40:02.053Z,8.77
2018-04-13T11:41:02.074Z,8.71
2018-04-13T11:42:02.076Z,8.7
2018-04-13T11:43:02.051Z,8.71
2018-04-13T11:44:02.071Z,8.7
2018-04-13T11:45:02.033Z,8.7
2018-04-13T11:46:02.027Z,8.75
2018-04-13T11:47:02.159Z,8.73
2018-04-13T11:48:02.043Z,8.73
2018-04-13T11:49:02.125Z,8.74
2018-04-13T11:50:02.250Z,8.71
2018-04-13T11:51:02.026Z,8.68
2018-04-13T11:52:02.096Z,8.69
2018-04-13T11:53:02.018Z,8.69
2018-04-13T11:54:02.057Z,8.74
2018-04-13T11:55:02.086Z,8.74
2018-04-13T11:56:02.062Z,8.76
2018-04-13T11:57:02.040Z,8.74
2018-04-13T11:58:02.019Z,8.7
2018-04-13T11:59:02.092Z,8.76
2018-04-13T12:00:02.114Z,8.69
2018-04-13T12:01:02.038Z,8.68
2018-04-13T12:02:02.049Z,8.71
2018-04-13T12:03:02.015Z,8.73
2018-04-13T12:04:02.075Z,8.74
2018-04-13T12:05:02.034Z,8.71
2018-04-13T12:06:02.060Z,8.68
2018-04-13T12:07:02.080Z,8.66
2018-04-13T12:08:02.019Z,8.7
2018-04-13T12:09:02.022Z,8.68
2018-04-13T12:10:01.991Z,8.74
2018-04-13T12:11:02.003Z,8.71
2018-04-13T12:12:01.995Z,8.7
2018-04-13T12:13:02.008Z,8.71
2018-04-13T12:14:01.990Z,8.67
2018-04-13T12:15:02.034Z,8.69
2018-04-13T12:16:02.041Z,8.74
2018-04-13T12:17:02.008Z,8.72
2018-04-13T12:18:02.024Z,8.72
2018-04-13T12:19:02.138Z,8.73
2018-04-13T12:20:01.997Z,8.76
2018-04-13T12:21:01.977Z,8.77
2018-04-13T12:22:01.976Z,8.67
2018-04-13T12:23:02.015Z,8.73
2018-04-13T12:24:01.994Z,8.77
2018-04-13T12:25:02.090Z,8.75
2018-04-13T12:26:01.998Z,8.8
2018-04-13T12:27:01.990Z,8.75
2018-04-13T12:28:01.992Z,8.77
2018-04-13T12:29:02.025Z,8.79
2018-04-13T12:30:02.026Z,8.8
2018-04-13T12:31:01.961Z,8.77
2018-04-13T12:32:02.100Z,8.8
2018-04-13T12:33:02.044Z,8.89
2018-04-13T12:34:01.996Z,8.84
2018-04-13T12:35:02.113Z,8.89
2018-04-13T12:36:02.021Z,8.86
2018-04-13T12:37:02.006Z,8.88
2018-04-13T12:38:02.015Z,8.87
2018-04-13T12:39:02.012Z,8.91
2018-04-13T12:40:01.930Z,8.88
2018-04-13T12:41:03.560Z,8.85
2018-04-13T12:42:02.045Z,8.89
2018-04-13T12:43:02.298Z,8.85
2018-04-13T12:44:01.996Z,8.9
2018-04-13T12:45:01.975Z,8.91
2018-04-13T12:46:01.943Z,8.91
2018-04-13T12:47:01.984Z,8.91
2018-04-13T12:48:01.929Z,8.87
2018-04-13T12:49:02.521Z,8.87
2018-04-13T12:50:04.010Z,8.89
2018-04-13T12:51:01.987Z,8.86
2018-04-13T12:52:02.583Z,8.91
2018-04-13T12:53:02.206Z,8.94
2018-04-13T12:54:02.274Z,8.9
2018-04-13T12:55:05.429Z,8.91
2018-04-13T12:56:02.422Z,8.94
2018-04-13T12:57:02.386Z,8.9
2018-04-13T12:58:07.118Z,8.97
2018-04-13T12:59:01.995Z,8.96
2018-04-13T13:00:01.965Z,8.91
2018-04-13T13:01:02.021Z,8.94
2018-04-13T13:02:02.080Z,8.89
2018-04-13T13:03:02.083Z,8.89
2018-04-13T13:04:01.936Z,8.96
2018-04-13T13:05:01.939Z,8.92
2018-04-13T13:06:01.909Z,8.96
2018-04-13T13:07:01.909Z,8.95
2018-04-13T13:08:02.624Z,8.98
2018-04-13T13:09:02.035Z,8.97
2018-04-13T13:10:02.221Z,8.96
2018-04-13T13:11:01.898Z,8.95
2018-04-13T13:12:01.979Z,9
2018-04-13T13:13:01.917Z,8.91
2018-04-13T13:14:01.906Z,8.98
2018-04-13T13:15:02.024Z,8.99
2018-04-13T13:16:01.896Z,8.97
2018-04-13T13:17:01.892Z,8.94
2018-04-13T13:18:01.930Z,8.96
2018-04-13T13:19:01.923Z,8.93
2018-04-13T13:20:01.968Z,8.95
2018-04-13T13:21:01.922Z,8.97